sensor_id;sensor_type;location;lat;lon;timestamp;P1;durP1;ratioP1;P2;durP2;ratioP2
57718;SDS011;43561;50.090;18.522;2023-02-28T00:02:54;10.10;;;6.97;;
57718;SDS011;43561;50.090;18.522;2023-02-28T00:12:59;24.08;;;10.00;;
57718;SDS011;43561;50.090;18.522;2023-02-28T00:23:03;11.65;;;8.02;;
57718;SDS011;43561;50.090;18.522;2023-02-28T00:33:05;18.90;;;10.82;;
57718;SDS011;43561;50.090;18.522;2023-02-28T00:43:07;17.10;;;11.43;;
57718;SDS011;43561;50.090;18.522;2023-02-28T00:53:09;30.02;;;13.93;;
57718;SDS011;43561;50.090;18.522;2023-02-28T01:03:11;20.38;;;8.73;;
57718;SDS011;43561;50.090;18.522;2023-02-28T01:13:13;15.15;;;9.95;;
57718;SDS011;43561;50.090;18.522;2023-02-28T01:23:15;14.77;;;11.15;;
57718;SDS011;43561;50.090;18.522;2023-02-28T01:33:16;19.00;;;13.15;;
57718;SDS011;43561;50.090;18.522;2023-02-28T01:43:21;12.98;;;10.73;;
57718;SDS011;43561;50.090;18.522;2023-02-28T01:53:36;34.25;;;15.55;;
57718;SDS011;43561;50.090;18.522;2023-02-28T02:03:43;17.45;;;15.57;;
57718;SDS011;43561;50.090;18.522;2023-02-28T02:13:55;15.18;;;9.18;;
57718;SDS011;43561;50.090;18.522;2023-02-28T02:34:43;29.52;;;11.77;;
57718;SDS011;43561;50.090;18.522;2023-02-28T02:44:51;29.85;;;11.02;;
57718;SDS011;43561;50.090;18.522;2023-02-28T02:55:08;15.07;;;11.15;;
57718;SDS011;43561;50.090;18.522;2023-02-28T03:05:35;25.13;;;15.23;;
57718;SDS011;43561;50.090;18.522;2023-02-28T03:26:23;15.20;;;13.70;;
57718;SDS011;43561;50.090;18.522;2023-02-28T03:36:33;14.95;;;10.13;;
57718;SDS011;43561;50.090;18.522;2023-02-28T03:46:39;23.73;;;17.60;;
57718;SDS011;43561;50.090;18.522;2023-02-28T04:07:33;18.48;;;13.50;;
57718;SDS011;43561;50.090;18.522;2023-02-28T04:17:35;16.23;;;11.73;;
57718;SDS011;43561;50.090;18.522;2023-02-28T04:27:37;26.60;;;16.02;;
57718;SDS011;43561;50.090;18.522;2023-02-28T04:37:39;23.58;;;13.43;;
57718;SDS011;43561;50.090;18.522;2023-02-28T04:47:41;23.67;;;15.35;;
57718;SDS011;43561;50.090;18.522;2023-02-28T04:57:43;59.17;;;23.38;;
57718;SDS011;43561;50.090;18.522;2023-02-28T05:07:45;34.83;;;20.88;;
57718;SDS011;43561;50.090;18.522;2023-02-28T05:17:47;17.48;;;9.43;;
57718;SDS011;43561;50.090;18.522;2023-02-28T05:27:48;18.35;;;13.25;;
57718;SDS011;43561;50.090;18.522;2023-02-28T05:37:50;18.98;;;14.68;;
57718;SDS011;43561;50.090;18.522;2023-02-28T05:47:53;25.05;;;16.13;;
57718;SDS011;43561;50.090;18.522;2023-02-28T05:57:57;21.85;;;15.48;;
57718;SDS011;43561;50.090;18.522;2023-02-28T06:07:59;15.23;;;11.68;;
57718;SDS011;43561;50.090;18.522;2023-02-28T06:18:01;28.98;;;17.45;;
57718;SDS011;43561;50.090;18.522;2023-02-28T06:28:03;18.23;;;16.33;;
57718;SDS011;43561;50.090;18.522;2023-02-28T06:38:05;25.67;;;12.32;;
57718;SDS011;43561;50.090;18.522;2023-02-28T06:48:07;36.30;;;21.23;;
57718;SDS011;43561;50.090;18.522;2023-02-28T06:58:09;34.00;;;25.58;;
57718;SDS011;43561;50.090;18.522;2023-02-28T07:08:11;27.55;;;15.70;;
57718;SDS011;43561;50.090;18.522;2023-02-28T07:18:13;38.63;;;19.65;;
57718;SDS011;43561;50.090;18.522;2023-02-28T07:28:15;34.47;;;20.13;;
57718;SDS011;43561;50.090;18.522;2023-02-28T07:38:16;34.42;;;16.05;;
57718;SDS011;43561;50.090;18.522;2023-02-28T07:48:18;25.33;;;18.42;;
57718;SDS011;43561;50.090;18.522;2023-02-28T07:58:20;32.50;;;22.35;;
57718;SDS011;43561;50.090;18.522;2023-02-28T08:08:22;26.38;;;18.88;;
57718;SDS011;43561;50.090;18.522;2023-02-28T08:18:25;41.58;;;17.17;;
57718;SDS011;43561;50.090;18.522;2023-02-28T08:28:27;36.22;;;21.52;;
57718;SDS011;43561;50.090;18.522;2023-02-28T08:38:28;20.00;;;13.73;;
57718;SDS011;43561;50.090;18.522;2023-02-28T08:48:31;17.42;;;13.23;;
57718;SDS011;43561;50.090;18.522;2023-02-28T08:58:35;24.33;;;15.13;;
57718;SDS011;43561;50.090;18.522;2023-02-28T09:08:37;13.48;;;8.52;;
57718;SDS011;43561;50.090;18.522;2023-02-28T09:18:39;11.55;;;6.85;;
57718;SDS011;43561;50.090;18.522;2023-02-28T09:28:41;15.68;;;9.32;;
57718;SDS011;43561;50.090;18.522;2023-02-28T09:38:43;17.98;;;10.23;;
57718;SDS011;43561;50.090;18.522;2023-02-28T09:48:46;12.80;;;6.03;;
57718;SDS011;43561;50.090;18.522;2023-02-28T10:09:07;11.73;;;7.35;;
57718;SDS011;43561;50.090;18.522;2023-02-28T10:29:28;11.13;;;8.77;;
57718;SDS011;43561;50.090;18.522;2023-02-28T10:39:35;16.27;;;6.70;;
57718;SDS011;43561;50.090;18.522;2023-02-28T10:49:39;16.30;;;9.30;;
57718;SDS011;43561;50.090;18.522;2023-02-28T10:59:52;18.08;;;9.43;;
57718;SDS011;43561;50.090;18.522;2023-02-28T11:10:16;21.15;;;11.02;;
57718;SDS011;43561;50.090;18.522;2023-02-28T11:20:21;13.18;;;8.50;;
57718;SDS011;43561;50.090;18.522;2023-02-28T11:30:28;10.60;;;6.65;;
57718;SDS011;43561;50.090;18.522;2023-02-28T11:40:43;20.35;;;9.80;;
57718;SDS011;43561;50.090;18.522;2023-02-28T11:51:03;17.45;;;11.05;;
57718;SDS011;43561;50.090;18.522;2023-02-28T12:01:31;22.98;;;12.82;;
57718;SDS011;43561;50.090;18.522;2023-02-28T12:11:54;17.30;;;9.23;;
57718;SDS011;43561;50.090;18.522;2023-02-28T12:22:05;20.57;;;11.20;;
57718;SDS011;43561;50.090;18.522;2023-02-28T12:32:12;11.23;;;8.37;;
57718;SDS011;43561;50.090;18.522;2023-02-28T12:42:30;21.55;;;9.98;;
57718;SDS011;43561;50.090;18.522;2023-02-28T12:52:43;11.02;;;9.95;;
57718;SDS011;43561;50.090;18.522;2023-02-28T13:13:28;20.38;;;13.30;;
57718;SDS011;43561;50.090;18.522;2023-02-28T13:44:01;20.73;;;11.13;;
57718;SDS011;43561;50.090;18.522;2023-02-28T13:54:07;14.70;;;8.57;;
57718;SDS011;43561;50.090;18.522;2023-02-28T14:04:38;12.80;;;8.63;;
57718;SDS011;43561;50.090;18.522;2023-02-28T14:45:41;31.67;;;19.17;;
57718;SDS011;43561;50.090;18.522;2023-02-28T14:55:44;27.17;;;15.30;;
57718;SDS011;43561;50.090;18.522;2023-02-28T15:05:57;15.05;;;9.77;;
57718;SDS011;43561;50.090;18.522;2023-02-28T15:16:34;28.95;;;14.18;;
57718;SDS011;43561;50.090;18.522;2023-02-28T15:26:42;22.85;;;13.85;;
57718;SDS011;43561;50.090;18.522;2023-02-28T15:36:47;31.15;;;17.30;;
57718;SDS011;43561;50.090;18.522;2023-02-28T15:46:59;25.45;;;16.35;;
57718;SDS011;43561;50.090;18.522;2023-02-28T15:57:24;29.17;;;15.55;;
57718;SDS011;43561;50.090;18.522;2023-02-28T16:07:27;35.28;;;19.23;;
57718;SDS011;43561;50.090;18.522;2023-02-28T16:17:32;50.60;;;23.13;;
57718;SDS011;43561;50.090;18.522;2023-02-28T16:27:36;33.70;;;21.92;;
57718;SDS011;43561;50.090;18.522;2023-02-28T16:37:39;46.05;;;27.55;;
57718;SDS011;43561;50.090;18.522;2023-02-28T16:47:42;55.50;;;27.10;;
57718;SDS011;43561;50.090;18.522;2023-02-28T16:57:44;80.18;;;38.95;;
57718;SDS011;43561;50.090;18.522;2023-02-28T17:07:49;67.10;;;35.00;;
57718;SDS011;43561;50.090;18.522;2023-02-28T17:17:52;73.22;;;35.08;;
57718;SDS011;43561;50.090;18.522;2023-02-28T17:27:53;56.83;;;27.95;;
57718;SDS011;43561;50.090;18.522;2023-02-28T17:37:55;69.15;;;33.15;;
57718;SDS011;43561;50.090;18.522;2023-02-28T17:47:57;87.15;;;41.13;;
57718;SDS011;43561;50.090;18.522;2023-02-28T17:57:59;107.43;;;47.97;;
57718;SDS011;43561;50.090;18.522;2023-02-28T18:08:02;79.43;;;45.60;;
57718;SDS011;43561;50.090;18.522;2023-02-28T18:18:04;75.45;;;31.40;;
57718;SDS011;43561;50.090;18.522;2023-02-28T18:28:06;86.80;;;41.80;;
57718;SDS011;43561;50.090;18.522;2023-02-28T18:38:12;75.68;;;39.42;;
57718;SDS011;43561;50.090;18.522;2023-02-28T18:48:16;62.78;;;38.65;;
57718;SDS011;43561;50.090;18.522;2023-02-28T18:58:18;64.47;;;40.03;;
57718;SDS011;43561;50.090;18.522;2023-02-28T19:08:20;64.68;;;36.03;;
57718;SDS011;43561;50.090;18.522;2023-02-28T19:18:21;77.30;;;46.67;;
57718;SDS011;43561;50.090;18.522;2023-02-28T19:28:26;99.18;;;44.95;;
57718;SDS011;43561;50.090;18.522;2023-02-28T19:38:29;64.38;;;39.00;;
57718;SDS011;43561;50.090;18.522;2023-02-28T19:48:31;65.78;;;37.90;;
57718;SDS011;43561;50.090;18.522;2023-02-28T19:58:33;58.65;;;35.42;;
57718;SDS011;43561;50.090;18.522;2023-02-28T20:08:36;69.85;;;38.25;;
57718;SDS011;43561;50.090;18.522;2023-02-28T20:18:39;47.92;;;32.00;;
57718;SDS011;43561;50.090;18.522;2023-02-28T20:28:42;73.07;;;33.58;;
57718;SDS011;43561;50.090;18.522;2023-02-28T20:38:44;63.03;;;36.47;;
57718;SDS011;43561;50.090;18.522;2023-02-28T20:48:46;46.67;;;36.58;;
57718;SDS011;43561;50.090;18.522;2023-02-28T20:58:49;75.70;;;43.30;;
57718;SDS011;43561;50.090;18.522;2023-02-28T21:08:53;81.88;;;46.53;;
57718;SDS011;43561;50.090;18.522;2023-02-28T21:18:55;53.63;;;42.75;;
57718;SDS011;43561;50.090;18.522;2023-02-28T21:28:58;70.72;;;45.95;;
57718;SDS011;43561;50.090;18.522;2023-02-28T21:39:04;91.28;;;50.05;;
57718;SDS011;43561;50.090;18.522;2023-02-28T21:49:08;72.72;;;42.50;;
57718;SDS011;43561;50.090;18.522;2023-02-28T21:59:10;93.32;;;48.60;;
57718;SDS011;43561;50.090;18.522;2023-02-28T22:09:12;88.25;;;53.35;;
57718;SDS011;43561;50.090;18.522;2023-02-28T22:19:14;90.55;;;57.33;;
57718;SDS011;43561;50.090;18.522;2023-02-28T22:29:16;108.22;;;64.55;;
57718;SDS011;43561;50.090;18.522;2023-02-28T22:39:18;87.70;;;52.55;;
57718;SDS011;43561;50.090;18.522;2023-02-28T22:49:20;94.43;;;49.35;;
57718;SDS011;43561;50.090;18.522;2023-02-28T22:59:22;106.28;;;70.47;;
57718;SDS011;43561;50.090;18.522;2023-02-28T23:09:24;98.95;;;70.47;;
57718;SDS011;43561;50.090;18.522;2023-02-28T23:19:27;131.95;;;72.35;;
57718;SDS011;43561;50.090;18.522;2023-02-28T23:29:31;131.30;;;70.90;;
57718;SDS011;43561;50.090;18.522;2023-02-28T23:39:33;154.88;;;68.07;;
57718;SDS011;43561;50.090;18.522;2023-02-28T23:49:35;112.38;;;65.57;;
57718;SDS011;43561;50.090;18.522;2023-02-28T23:59:37;96.30;;;60.25;;
